sensor_id;sensor_type;location;lat;lon;timestamp;P1;durP1;ratioP1;P2;durP2;ratioP2
4309;SDS011;2168;53.576;9.980;2022-12-10T00:01:14;41.63;;;19.73;;
4309;SDS011;2168;53.576;9.980;2022-12-10T00:03:40;36.20;;;18.70;;
4309;SDS011;2168;53.576;9.980;2022-12-10T00:06:06;44.60;;;19.90;;
4309;SDS011;2168;53.576;9.980;2022-12-10T00:08:33;39.00;;;19.03;;
4309;SDS011;2168;53.576;9.980;2022-12-10T00:10:58;45.30;;;20.37;;
4309;SDS011;2168;53.576;9.980;2022-12-10T00:13:24;39.40;;;19.40;;
4309;SDS011;2168;53.576;9.980;2022-12-10T00:15:49;35.13;;;19.20;;
4309;SDS011;2168;53.576;9.980;2022-12-10T00:18:14;42.90;;;19.37;;
4309;SDS011;2168;53.576;9.980;2022-12-10T00:20:39;36.57;;;17.80;;
4309;SDS011;2168;53.576;9.980;2022-12-10T00:23:05;32.23;;;17.57;;
4309;SDS011;2168;53.576;9.980;2022-12-10T00:25:31;33.70;;;17.40;;
4309;SDS011;2168;53.576;9.980;2022-12-10T00:27:56;35.87;;;17.43;;
4309;SDS011;2168;53.576;9.980;2022-12-10T00:30:21;44.10;;;19.40;;
4309;SDS011;2168;53.576;9.980;2022-12-10T00:32:47;33.77;;;16.23;;
4309;SDS011;2168;53.576;9.980;2022-12-10T00:35:12;34.63;;;17.10;;
4309;SDS011;2168;53.576;9.980;2022-12-10T00:37:37;35.87;;;18.13;;
4309;SDS011;2168;53.576;9.980;2022-12-10T00:40:02;32.60;;;16.37;;
4309;SDS011;2168;53.576;9.980;2022-12-10T00:42:28;36.73;;;17.13;;
4309;SDS011;2168;53.576;9.980;2022-12-10T00:44:53;33.20;;;16.00;;
4309;SDS011;2168;53.576;9.980;2022-12-10T00:47:18;29.73;;;15.60;;
4309;SDS011;2168;53.576;9.980;2022-12-10T00:49:43;25.60;;;15.10;;
4309;SDS011;2168;53.576;9.980;2022-12-10T00:52:08;29.87;;;15.13;;
4309;SDS011;2168;53.576;9.980;2022-12-10T00:54:33;31.63;;;15.77;;
4309;SDS011;2168;53.576;9.980;2022-12-10T00:56:59;35.33;;;16.67;;
4309;SDS011;2168;53.576;9.980;2022-12-10T00:59:24;31.97;;;16.30;;
4309;SDS011;2168;53.576;9.980;2022-12-10T01:01:49;28.20;;;13.80;;
4309;SDS011;2168;53.576;9.980;2022-12-10T01:04:15;27.40;;;13.47;;
4309;SDS011;2168;53.576;9.980;2022-12-10T01:06:48;29.50;;;14.87;;
4309;SDS011;2168;53.576;9.980;2022-12-10T01:09:15;32.00;;;14.30;;
4309;SDS011;2168;53.576;9.980;2022-12-10T01:11:41;25.30;;;13.70;;
4309;SDS011;2168;53.576;9.980;2022-12-10T01:14:08;31.27;;;13.37;;
4309;SDS011;2168;53.576;9.980;2022-12-10T01:16:33;25.90;;;13.43;;
4309;SDS011;2168;53.576;9.980;2022-12-10T01:18:59;23.70;;;13.23;;
4309;SDS011;2168;53.576;9.980;2022-12-10T01:21:24;26.03;;;13.40;;
4309;SDS011;2168;53.576;9.980;2022-12-10T01:23:50;26.87;;;13.50;;
4309;SDS011;2168;53.576;9.980;2022-12-10T01:26:23;28.63;;;12.67;;
4309;SDS011;2168;53.576;9.980;2022-12-10T01:28:48;22.37;;;12.90;;
4309;SDS011;2168;53.576;9.980;2022-12-10T01:31:17;19.60;;;11.37;;
4309;SDS011;2168;53.576;9.980;2022-12-10T01:33:43;22.50;;;12.43;;
4309;SDS011;2168;53.576;9.980;2022-12-10T01:36:10;23.83;;;12.40;;
4309;SDS011;2168;53.576;9.980;2022-12-10T01:38:36;20.80;;;11.90;;
4309;SDS011;2168;53.576;9.980;2022-12-10T01:41:01;24.80;;;12.30;;
4309;SDS011;2168;53.576;9.980;2022-12-10T01:43:26;20.07;;;12.40;;
4309;SDS011;2168;53.576;9.980;2022-12-10T01:45:52;25.20;;;13.47;;
4309;SDS011;2168;53.576;9.980;2022-12-10T01:48:17;25.27;;;12.23;;
4309;SDS011;2168;53.576;9.980;2022-12-10T01:50:42;22.13;;;12.30;;
4309;SDS011;2168;53.576;9.980;2022-12-10T01:53:07;19.40;;;11.73;;
4309;SDS011;2168;53.576;9.980;2022-12-10T01:55:41;20.07;;;11.13;;
4309;SDS011;2168;53.576;9.980;2022-12-10T01:58:07;20.50;;;11.17;;
4309;SDS011;2168;53.576;9.980;2022-12-10T02:00:33;21.70;;;10.97;;
4309;SDS011;2168;53.576;9.980;2022-12-10T02:03:00;18.93;;;10.57;;
4309;SDS011;2168;53.576;9.980;2022-12-10T02:05:34;22.00;;;12.53;;
4309;SDS011;2168;53.576;9.980;2022-12-10T02:15:20;18.10;;;10.53;;
4309;SDS011;2168;53.576;9.980;2022-12-10T02:18:03;23.03;;;10.37;;
4309;SDS011;2168;53.576;9.980;2022-12-10T02:22:56;14.17;;;8.90;;
4309;SDS011;2168;53.576;9.980;2022-12-10T02:25:23;14.70;;;8.70;;
4309;SDS011;2168;53.576;9.980;2022-12-10T02:30:15;19.03;;;10.80;;
4309;SDS011;2168;53.576;9.980;2022-12-10T02:32:40;17.50;;;9.80;;
4309;SDS011;2168;53.576;9.980;2022-12-10T02:35:09;18.70;;;10.07;;
4309;SDS011;2168;53.576;9.980;2022-12-10T02:37:37;17.53;;;10.03;;
4309;SDS011;2168;53.576;9.980;2022-12-10T02:40:08;16.23;;;9.77;;
4309;SDS011;2168;53.576;9.980;2022-12-10T02:42:35;13.37;;;8.20;;
4309;SDS011;2168;53.576;9.980;2022-12-10T02:45:03;13.13;;;8.90;;
4309;SDS011;2168;53.576;9.980;2022-12-10T02:47:28;19.00;;;10.00;;
4309;SDS011;2168;53.576;9.980;2022-12-10T02:49:55;17.60;;;9.77;;
4309;SDS011;2168;53.576;9.980;2022-12-10T02:52:22;16.10;;;9.60;;
4309;SDS011;2168;53.576;9.980;2022-12-10T02:54:48;15.40;;;9.20;;
4309;SDS011;2168;53.576;9.980;2022-12-10T02:57:15;16.50;;;8.47;;
4309;SDS011;2168;53.576;9.980;2022-12-10T03:02:22;19.60;;;9.23;;
4309;SDS011;2168;53.576;9.980;2022-12-10T03:05:01;14.07;;;8.00;;
4309;SDS011;2168;53.576;9.980;2022-12-10T03:07:33;11.80;;;7.70;;
4309;SDS011;2168;53.576;9.980;2022-12-10T03:10:02;16.27;;;8.90;;
4309;SDS011;2168;53.576;9.980;2022-12-10T03:12:29;11.50;;;6.57;;
4309;SDS011;2168;53.576;9.980;2022-12-10T03:14:58;10.93;;;6.50;;
4309;SDS011;2168;53.576;9.980;2022-12-10T03:17:23;8.30;;;5.97;;
4309;SDS011;2168;53.576;9.980;2022-12-10T03:19:49;7.43;;;5.73;;
4309;SDS011;2168;53.576;9.980;2022-12-10T03:22:15;10.90;;;6.50;;
4309;SDS011;2168;53.576;9.980;2022-12-10T03:24:42;8.93;;;5.87;;
4309;SDS011;2168;53.576;9.980;2022-12-10T03:27:08;13.60;;;7.13;;
4309;SDS011;2168;53.576;9.980;2022-12-10T03:29:38;12.53;;;6.10;;
4309;SDS011;2168;53.576;9.980;2022-12-10T03:32:04;9.63;;;6.23;;
4309;SDS011;2168;53.576;9.980;2022-12-10T03:34:30;7.43;;;5.17;;
4309;SDS011;2168;53.576;9.980;2022-12-10T03:36:55;9.20;;;6.67;;
4309;SDS011;2168;53.576;9.980;2022-12-10T03:39:20;10.67;;;6.77;;
4309;SDS011;2168;53.576;9.980;2022-12-10T03:41:46;12.47;;;5.90;;
4309;SDS011;2168;53.576;9.980;2022-12-10T03:44:11;9.73;;;6.07;;
4309;SDS011;2168;53.576;9.980;2022-12-10T03:46:37;10.63;;;6.30;;
4309;SDS011;2168;53.576;9.980;2022-12-10T03:49:03;11.13;;;7.10;;
4309;SDS011;2168;53.576;9.980;2022-12-10T03:51:28;11.73;;;6.53;;
4309;SDS011;2168;53.576;9.980;2022-12-10T03:53:53;8.93;;;6.47;;
4309;SDS011;2168;53.576;9.980;2022-12-10T03:56:19;11.13;;;7.07;;
4309;SDS011;2168;53.576;9.980;2022-12-10T03:58:44;11.13;;;6.50;;
4309;SDS011;2168;53.576;9.980;2022-12-10T04:01:10;11.87;;;7.10;;
4309;SDS011;2168;53.576;9.980;2022-12-10T04:03:36;9.90;;;6.20;;
4309;SDS011;2168;53.576;9.980;2022-12-10T04:06:05;8.73;;;5.93;;
4309;SDS011;2168;53.576;9.980;2022-12-10T04:08:31;7.80;;;5.20;;
4309;SDS011;2168;53.576;9.980;2022-12-10T04:11:06;7.80;;;5.10;;
4309;SDS011;2168;53.576;9.980;2022-12-10T04:13:35;7.00;;;5.10;;
4309;SDS011;2168;53.576;9.980;2022-12-10T04:16:19;8.90;;;5.90;;
4309;SDS011;2168;53.576;9.980;2022-12-10T04:18:55;7.80;;;5.13;;
4309;SDS011;2168;53.576;9.980;2022-12-10T04:21:20;7.80;;;5.57;;
4309;SDS011;2168;53.576;9.980;2022-12-10T04:24:04;7.43;;;5.57;;
4309;SDS011;2168;53.576;9.980;2022-12-10T04:26:48;9.67;;;6.17;;
4309;SDS011;2168;53.576;9.980;2022-12-10T04:29:21;10.43;;;5.53;;
4309;SDS011;2168;53.576;9.980;2022-12-10T04:31:46;7.53;;;5.70;;
4309;SDS011;2168;53.576;9.980;2022-12-10T04:34:12;7.50;;;5.10;;
4309;SDS011;2168;53.576;9.980;2022-12-10T04:36:37;7.90;;;5.23;;
4309;SDS011;2168;53.576;9.980;2022-12-10T04:39:02;7.80;;;6.17;;
4309;SDS011;2168;53.576;9.980;2022-12-10T04:41:27;8.20;;;5.50;;
4309;SDS011;2168;53.576;9.980;2022-12-10T04:43:53;9.00;;;6.20;;
4309;SDS011;2168;53.576;9.980;2022-12-10T04:46:18;8.40;;;5.30;;
4309;SDS011;2168;53.576;9.980;2022-12-10T04:48:43;7.47;;;5.53;;
4309;SDS011;2168;53.576;9.980;2022-12-10T04:51:08;9.53;;;5.13;;
4309;SDS011;2168;53.576;9.980;2022-12-10T04:53:33;9.70;;;5.47;;
4309;SDS011;2168;53.576;9.980;2022-12-10T04:55:59;8.03;;;5.10;;
4309;SDS011;2168;53.576;9.980;2022-12-10T04:58:25;7.13;;;5.40;;
4309;SDS011;2168;53.576;9.980;2022-12-10T05:01:00;7.60;;;5.17;;
4309;SDS011;2168;53.576;9.980;2022-12-10T05:03:25;9.33;;;6.53;;
4309;SDS011;2168;53.576;9.980;2022-12-10T05:05:50;10.60;;;6.10;;
4309;SDS011;2168;53.576;9.980;2022-12-10T05:08:15;9.13;;;6.27;;
4309;SDS011;2168;53.576;9.980;2022-12-10T05:10:40;8.57;;;6.43;;
4309;SDS011;2168;53.576;9.980;2022-12-10T05:13:05;9.13;;;6.27;;
4309;SDS011;2168;53.576;9.980;2022-12-10T05:15:31;9.10;;;5.90;;
4309;SDS011;2168;53.576;9.980;2022-12-10T05:17:56;9.60;;;5.40;;
4309;SDS011;2168;53.576;9.980;2022-12-10T05:20:21;9.20;;;5.80;;
4309;SDS011;2168;53.576;9.980;2022-12-10T05:22:46;9.80;;;6.67;;
4309;SDS011;2168;53.576;9.980;2022-12-10T05:25:30;10.20;;;6.30;;
4309;SDS011;2168;53.576;9.980;2022-12-10T05:27:55;7.70;;;5.33;;
4309;SDS011;2168;53.576;9.980;2022-12-10T05:30:20;10.20;;;5.80;;
4309;SDS011;2168;53.576;9.980;2022-12-10T05:32:45;7.67;;;6.03;;
4309;SDS011;2168;53.576;9.980;2022-12-10T05:35:10;10.50;;;6.97;;
4309;SDS011;2168;53.576;9.980;2022-12-10T05:37:35;13.60;;;6.27;;
4309;SDS011;2168;53.576;9.980;2022-12-10T05:40:01;7.70;;;5.70;;
4309;SDS011;2168;53.576;9.980;2022-12-10T05:42:26;9.77;;;6.77;;
4309;SDS011;2168;53.576;9.980;2022-12-10T05:44:51;10.70;;;6.90;;
4309;SDS011;2168;53.576;9.980;2022-12-10T05:47:16;9.30;;;5.87;;
4309;SDS011;2168;53.576;9.980;2022-12-10T05:49:41;7.80;;;6.03;;
4309;SDS011;2168;53.576;9.980;2022-12-10T05:52:07;10.27;;;5.37;;
4309;SDS011;2168;53.576;9.980;2022-12-10T05:54:34;7.67;;;5.93;;
4309;SDS011;2168;53.576;9.980;2022-12-10T05:56:59;7.83;;;6.27;;
4309;SDS011;2168;53.576;9.980;2022-12-10T05:59:24;8.90;;;5.80;;
4309;SDS011;2168;53.576;9.980;2022-12-10T06:01:49;9.40;;;5.40;;
4309;SDS011;2168;53.576;9.980;2022-12-10T06:04:15;9.27;;;6.00;;
4309;SDS011;2168;53.576;9.980;2022-12-10T06:06:40;7.97;;;5.13;;
4309;SDS011;2168;53.576;9.980;2022-12-10T06:09:06;6.73;;;5.53;;
4309;SDS011;2168;53.576;9.980;2022-12-10T06:11:32;7.87;;;6.30;;
4309;SDS011;2168;53.576;9.980;2022-12-10T06:13:58;9.70;;;5.60;;
4309;SDS011;2168;53.576;9.980;2022-12-10T06:16:24;9.10;;;6.30;;
4309;SDS011;2168;53.576;9.980;2022-12-10T06:18:49;9.37;;;6.60;;
4309;SDS011;2168;53.576;9.980;2022-12-10T06:21:16;7.63;;;5.53;;
4309;SDS011;2168;53.576;9.980;2022-12-10T06:23:41;7.70;;;5.63;;
4309;SDS011;2168;53.576;9.980;2022-12-10T06:26:18;9.13;;;6.30;;
4309;SDS011;2168;53.576;9.980;2022-12-10T06:28:44;11.77;;;6.40;;
4309;SDS011;2168;53.576;9.980;2022-12-10T06:31:09;10.50;;;6.67;;
4309;SDS011;2168;53.576;9.980;2022-12-10T06:33:34;9.23;;;6.17;;
4309;SDS011;2168;53.576;9.980;2022-12-10T06:36:02;9.40;;;6.83;;
4309;SDS011;2168;53.576;9.980;2022-12-10T06:38:28;9.30;;;6.23;;
4309;SDS011;2168;53.576;9.980;2022-12-10T06:40:53;8.80;;;6.30;;
4309;SDS011;2168;53.576;9.980;2022-12-10T06:43:18;11.03;;;7.23;;
4309;SDS011;2168;53.576;9.980;2022-12-10T06:45:43;10.10;;;7.40;;
4309;SDS011;2168;53.576;9.980;2022-12-10T06:48:09;8.77;;;6.53;;
4309;SDS011;2168;53.576;9.980;2022-12-10T06:50:34;9.90;;;5.77;;
4309;SDS011;2168;53.576;9.980;2022-12-10T06:52:59;7.17;;;6.20;;
4309;SDS011;2168;53.576;9.980;2022-12-10T06:55:24;6.80;;;5.57;;
4309;SDS011;2168;53.576;9.980;2022-12-10T06:57:50;6.70;;;5.87;;
4309;SDS011;2168;53.576;9.980;2022-12-10T07:00:16;8.10;;;5.53;;
4309;SDS011;2168;53.576;9.980;2022-12-10T07:02:41;8.87;;;6.60;;
4309;SDS011;2168;53.576;9.980;2022-12-10T07:05:06;7.77;;;5.77;;
4309;SDS011;2168;53.576;9.980;2022-12-10T07:07:32;8.27;;;6.17;;
4309;SDS011;2168;53.576;9.980;2022-12-10T07:09:57;9.17;;;5.80;;
4309;SDS011;2168;53.576;9.980;2022-12-10T07:12:22;7.80;;;6.20;;
4309;SDS011;2168;53.576;9.980;2022-12-10T07:14:47;8.30;;;6.57;;
4309;SDS011;2168;53.576;9.980;2022-12-10T07:17:13;8.83;;;6.23;;
4309;SDS011;2168;53.576;9.980;2022-12-10T07:19:38;5.97;;;5.00;;
4309;SDS011;2168;53.576;9.980;2022-12-10T07:22:03;8.57;;;6.10;;
4309;SDS011;2168;53.576;9.980;2022-12-10T07:24:29;8.13;;;5.87;;
4309;SDS011;2168;53.576;9.980;2022-12-10T07:26:54;7.20;;;4.97;;
4309;SDS011;2168;53.576;9.980;2022-12-10T07:29:20;10.93;;;7.20;;
4309;SDS011;2168;53.576;9.980;2022-12-10T07:31:46;6.70;;;5.20;;
4309;SDS011;2168;53.576;9.980;2022-12-10T07:34:12;9.43;;;6.67;;
4309;SDS011;2168;53.576;9.980;2022-12-10T07:36:38;8.10;;;5.47;;
4309;SDS011;2168;53.576;9.980;2022-12-10T07:39:07;7.93;;;5.67;;
4309;SDS011;2168;53.576;9.980;2022-12-10T07:41:33;9.53;;;6.70;;
4309;SDS011;2168;53.576;9.980;2022-12-10T07:43:58;7.23;;;5.90;;
4309;SDS011;2168;53.576;9.980;2022-12-10T07:46:25;9.07;;;5.87;;
4309;SDS011;2168;53.576;9.980;2022-12-10T07:48:51;10.07;;;6.17;;
4309;SDS011;2168;53.576;9.980;2022-12-10T07:51:17;7.60;;;5.87;;
4309;SDS011;2168;53.576;9.980;2022-12-10T07:53:42;7.87;;;6.03;;
4309;SDS011;2168;53.576;9.980;2022-12-10T07:56:08;8.43;;;6.20;;
4309;SDS011;2168;53.576;9.980;2022-12-10T07:58:33;8.53;;;5.93;;
4309;SDS011;2168;53.576;9.980;2022-12-10T08:00:59;7.77;;;6.10;;
4309;SDS011;2168;53.576;9.980;2022-12-10T08:03:30;7.60;;;6.13;;
4309;SDS011;2168;53.576;9.980;2022-12-10T08:06:05;7.83;;;5.73;;
4309;SDS011;2168;53.576;9.980;2022-12-10T08:08:32;8.27;;;6.23;;
4309;SDS011;2168;53.576;9.980;2022-12-10T08:10:58;8.80;;;6.07;;
4309;SDS011;2168;53.576;9.980;2022-12-10T08:13:24;6.80;;;5.30;;
4309;SDS011;2168;53.576;9.980;2022-12-10T08:15:49;6.80;;;5.57;;
4309;SDS011;2168;53.576;9.980;2022-12-10T08:18:14;9.20;;;6.60;;
4309;SDS011;2168;53.576;9.980;2022-12-10T08:20:39;7.90;;;6.57;;
4309;SDS011;2168;53.576;9.980;2022-12-10T08:23:05;8.37;;;6.20;;
4309;SDS011;2168;53.576;9.980;2022-12-10T08:25:30;8.67;;;6.30;;
4309;SDS011;2168;53.576;9.980;2022-12-10T08:27:55;9.10;;;6.33;;
4309;SDS011;2168;53.576;9.980;2022-12-10T08:30:21;11.10;;;7.40;;
4309;SDS011;2168;53.576;9.980;2022-12-10T08:32:46;6.93;;;5.93;;
4309;SDS011;2168;53.576;9.980;2022-12-10T08:35:11;8.70;;;6.30;;
4309;SDS011;2168;53.576;9.980;2022-12-10T08:37:37;9.73;;;6.07;;
4309;SDS011;2168;53.576;9.980;2022-12-10T08:40:05;9.43;;;6.73;;
4309;SDS011;2168;53.576;9.980;2022-12-10T08:42:30;9.40;;;6.83;;
4309;SDS011;2168;53.576;9.980;2022-12-10T08:44:55;9.70;;;6.77;;
4309;SDS011;2168;53.576;9.980;2022-12-10T08:47:21;7.93;;;6.67;;
4309;SDS011;2168;53.576;9.980;2022-12-10T08:49:46;10.93;;;7.00;;
4309;SDS011;2168;53.576;9.980;2022-12-10T08:52:11;9.20;;;7.30;;
4309;SDS011;2168;53.576;9.980;2022-12-10T08:54:36;10.23;;;6.83;;
4309;SDS011;2168;53.576;9.980;2022-12-10T08:57:01;10.57;;;7.50;;
4309;SDS011;2168;53.576;9.980;2022-12-10T08:59:27;8.90;;;7.17;;
4309;SDS011;2168;53.576;9.980;2022-12-10T09:01:52;10.37;;;6.90;;
4309;SDS011;2168;53.576;9.980;2022-12-10T09:04:18;10.40;;;7.40;;
4309;SDS011;2168;53.576;9.980;2022-12-10T09:06:43;10.33;;;7.30;;
4309;SDS011;2168;53.576;9.980;2022-12-10T09:09:08;10.10;;;7.50;;
4309;SDS011;2168;53.576;9.980;2022-12-10T09:11:33;6.80;;;6.10;;
4309;SDS011;2168;53.576;9.980;2022-12-10T09:13:59;9.10;;;6.73;;
4309;SDS011;2168;53.576;9.980;2022-12-10T09:16:28;9.60;;;6.87;;
4309;SDS011;2168;53.576;9.980;2022-12-10T09:18:53;9.80;;;7.07;;
4309;SDS011;2168;53.576;9.980;2022-12-10T09:21:18;9.50;;;7.37;;
4309;SDS011;2168;53.576;9.980;2022-12-10T09:23:44;8.80;;;6.67;;
4309;SDS011;2168;53.576;9.980;2022-12-10T09:26:10;9.50;;;6.30;;
4309;SDS011;2168;53.576;9.980;2022-12-10T09:28:36;9.90;;;6.80;;
4309;SDS011;2168;53.576;9.980;2022-12-10T09:31:02;9.87;;;6.70;;
4309;SDS011;2168;53.576;9.980;2022-12-10T09:33:28;9.67;;;7.30;;
4309;SDS011;2168;53.576;9.980;2022-12-10T09:35:53;9.30;;;6.40;;
4309;SDS011;2168;53.576;9.980;2022-12-10T09:38:18;8.77;;;6.50;;
4309;SDS011;2168;53.576;9.980;2022-12-10T09:40:45;8.00;;;6.10;;
4309;SDS011;2168;53.576;9.980;2022-12-10T09:43:15;8.13;;;6.10;;
4309;SDS011;2168;53.576;9.980;2022-12-10T09:45:57;8.30;;;6.87;;
4309;SDS011;2168;53.576;9.980;2022-12-10T09:48:32;8.10;;;6.60;;
4309;SDS011;2168;53.576;9.980;2022-12-10T09:53:41;8.40;;;6.17;;
4309;SDS011;2168;53.576;9.980;2022-12-10T09:56:10;7.93;;;6.03;;
4309;SDS011;2168;53.576;9.980;2022-12-10T09:58:42;8.30;;;5.60;;
4309;SDS011;2168;53.576;9.980;2022-12-10T10:01:09;7.37;;;5.50;;
4309;SDS011;2168;53.576;9.980;2022-12-10T10:03:38;14.20;;;6.90;;
4309;SDS011;2168;53.576;9.980;2022-12-10T10:06:03;8.70;;;6.40;;
4309;SDS011;2168;53.576;9.980;2022-12-10T10:10:54;9.23;;;6.07;;
4309;SDS011;2168;53.576;9.980;2022-12-10T10:13:28;8.67;;;6.10;;
4309;SDS011;2168;53.576;9.980;2022-12-10T10:15:55;7.90;;;6.20;;
4309;SDS011;2168;53.576;9.980;2022-12-10T10:18:34;9.53;;;5.90;;
4309;SDS011;2168;53.576;9.980;2022-12-10T10:21:01;9.10;;;6.40;;
4309;SDS011;2168;53.576;9.980;2022-12-10T10:23:27;9.03;;;6.47;;
4309;SDS011;2168;53.576;9.980;2022-12-10T10:25:52;7.80;;;5.90;;
4309;SDS011;2168;53.576;9.980;2022-12-10T10:28:19;8.80;;;6.23;;
4309;SDS011;2168;53.576;9.980;2022-12-10T10:30:45;6.60;;;5.30;;
4309;SDS011;2168;53.576;9.980;2022-12-10T10:33:11;6.87;;;5.50;;
4309;SDS011;2168;53.576;9.980;2022-12-10T10:35:45;8.60;;;5.90;;
4309;SDS011;2168;53.576;9.980;2022-12-10T10:38:29;8.00;;;5.73;;
4309;SDS011;2168;53.576;9.980;2022-12-10T10:40:55;9.77;;;7.63;;
4309;SDS011;2168;53.576;9.980;2022-12-10T10:45:59;9.03;;;5.60;;
4309;SDS011;2168;53.576;9.980;2022-12-10T10:48:26;7.20;;;6.23;;
4309;SDS011;2168;53.576;9.980;2022-12-10T10:50:53;8.20;;;6.27;;
4309;SDS011;2168;53.576;9.980;2022-12-10T10:55:47;7.60;;;6.23;;
4309;SDS011;2168;53.576;9.980;2022-12-10T10:58:19;7.90;;;5.90;;
4309;SDS011;2168;53.576;9.980;2022-12-10T11:00:54;8.90;;;5.10;;
4309;SDS011;2168;53.576;9.980;2022-12-10T11:03:20;7.57;;;5.70;;
4309;SDS011;2168;53.576;9.980;2022-12-10T11:05:47;6.23;;;5.20;;
4309;SDS011;2168;53.576;9.980;2022-12-10T11:08:16;6.63;;;5.27;;
4309;SDS011;2168;53.576;9.980;2022-12-10T11:10:55;6.77;;;5.57;;
4309;SDS011;2168;53.576;9.980;2022-12-10T11:13:25;6.67;;;5.50;;
4309;SDS011;2168;53.576;9.980;2022-12-10T11:18:36;8.60;;;5.90;;
4309;SDS011;2168;53.576;9.980;2022-12-10T11:21:06;7.57;;;5.23;;
4309;SDS011;2168;53.576;9.980;2022-12-10T11:23:36;5.90;;;4.93;;
4309;SDS011;2168;53.576;9.980;2022-12-10T11:26:16;6.73;;;5.63;;
4309;SDS011;2168;53.576;9.980;2022-12-10T11:33:58;9.63;;;6.30;;
4309;SDS011;2168;53.576;9.980;2022-12-10T11:36:33;6.10;;;5.50;;
4309;SDS011;2168;53.576;9.980;2022-12-10T11:39:20;7.03;;;5.67;;
4309;SDS011;2168;53.576;9.980;2022-12-10T11:41:53;6.13;;;5.20;;
4309;SDS011;2168;53.576;9.980;2022-12-10T11:47:01;8.33;;;6.43;;
4309;SDS011;2168;53.576;9.980;2022-12-10T11:58:27;8.40;;;5.78;;
4309;SDS011;2168;53.576;9.980;2022-12-10T12:07:55;7.20;;;5.53;;
4309;SDS011;2168;53.576;9.980;2022-12-10T12:13:18;9.30;;;6.80;;
4309;SDS011;2168;53.576;9.980;2022-12-10T12:15:56;6.53;;;5.10;;
4309;SDS011;2168;53.576;9.980;2022-12-10T12:20:57;7.47;;;5.70;;
4309;SDS011;2168;53.576;9.980;2022-12-10T12:25:54;6.37;;;5.43;;
4309;SDS011;2168;53.576;9.980;2022-12-10T12:28:34;8.00;;;6.07;;
4309;SDS011;2168;53.576;9.980;2022-12-10T12:36:35;9.50;;;7.27;;
4309;SDS011;2168;53.576;9.980;2022-12-10T12:39:11;8.57;;;6.97;;
4309;SDS011;2168;53.576;9.980;2022-12-10T12:41:45;12.30;;;7.47;;
4309;SDS011;2168;53.576;9.980;2022-12-10T12:44:26;11.80;;;7.40;;
4309;SDS011;2168;53.576;9.980;2022-12-10T12:46:55;11.87;;;7.00;;
4309;SDS011;2168;53.576;9.980;2022-12-10T12:54:32;9.20;;;6.90;;
4309;SDS011;2168;53.576;9.980;2022-12-10T12:57:03;9.47;;;6.93;;
4309;SDS011;2168;53.576;9.980;2022-12-10T13:02:06;15.03;;;9.07;;
4309;SDS011;2168;53.576;9.980;2022-12-10T13:04:36;10.10;;;7.73;;
4309;SDS011;2168;53.576;9.980;2022-12-10T13:07:26;11.03;;;8.90;;
4309;SDS011;2168;53.576;9.980;2022-12-10T13:10:25;11.20;;;7.27;;
4309;SDS011;2168;53.576;9.980;2022-12-10T13:12:48;11.03;;;7.40;;
4309;SDS011;2168;53.576;9.980;2022-12-10T13:17:39;9.43;;;7.17;;
4309;SDS011;2168;53.576;9.980;2022-12-10T13:23:49;9.10;;;6.90;;
4309;SDS011;2168;53.576;9.980;2022-12-10T13:30:42;8.87;;;7.20;;
4309;SDS011;2168;53.576;9.980;2022-12-10T13:33:14;11.33;;;7.10;;
4309;SDS011;2168;53.576;9.980;2022-12-10T13:35:59;8.57;;;6.70;;
4309;SDS011;2168;53.576;9.980;2022-12-10T13:38:26;10.10;;;6.83;;
4309;SDS011;2168;53.576;9.980;2022-12-10T13:40:59;11.03;;;6.70;;
4309;SDS011;2168;53.576;9.980;2022-12-10T13:43:47;9.23;;;7.10;;
4309;SDS011;2168;53.576;9.980;2022-12-10T13:46:50;7.70;;;6.17;;
4309;SDS011;2168;53.576;9.980;2022-12-10T13:49:16;7.70;;;5.90;;
4309;SDS011;2168;53.576;9.980;2022-12-10T13:51:46;7.43;;;5.80;;
4309;SDS011;2168;53.576;9.980;2022-12-10T13:54:28;8.60;;;6.47;;
4309;SDS011;2168;53.576;9.980;2022-12-10T13:59:52;11.73;;;7.07;;
4309;SDS011;2168;53.576;9.980;2022-12-10T14:02:33;8.90;;;6.70;;
4309;SDS011;2168;53.576;9.980;2022-12-10T14:07:47;7.40;;;5.97;;
4309;SDS011;2168;53.576;9.980;2022-12-10T14:10:14;8.33;;;5.93;;
4309;SDS011;2168;53.576;9.980;2022-12-10T14:12:40;10.03;;;6.43;;
4309;SDS011;2168;53.576;9.980;2022-12-10T14:15:07;7.90;;;6.30;;
4309;SDS011;2168;53.576;9.980;2022-12-10T14:17:37;8.67;;;6.00;;
4309;SDS011;2168;53.576;9.980;2022-12-10T14:20:03;7.87;;;5.93;;
4309;SDS011;2168;53.576;9.980;2022-12-10T14:22:39;7.30;;;5.87;;
4309;SDS011;2168;53.576;9.980;2022-12-10T14:25:12;7.93;;;6.47;;
4309;SDS011;2168;53.576;9.980;2022-12-10T14:27:37;7.73;;;6.67;;
4309;SDS011;2168;53.576;9.980;2022-12-10T14:30:04;8.40;;;5.90;;
4309;SDS011;2168;53.576;9.980;2022-12-10T14:32:30;18.20;;;6.13;;
4309;SDS011;2168;53.576;9.980;2022-12-10T14:34:56;8.20;;;6.07;;
4309;SDS011;2168;53.576;9.980;2022-12-10T14:37:24;10.57;;;6.83;;
4309;SDS011;2168;53.576;9.980;2022-12-10T14:39:50;9.50;;;6.93;;
4309;SDS011;2168;53.576;9.980;2022-12-10T14:42:16;7.77;;;5.80;;
4309;SDS011;2168;53.576;9.980;2022-12-10T14:44:41;11.50;;;7.90;;
4309;SDS011;2168;53.576;9.980;2022-12-10T14:47:12;8.70;;;6.63;;
4309;SDS011;2168;53.576;9.980;2022-12-10T14:49:38;13.40;;;7.73;;
4309;SDS011;2168;53.576;9.980;2022-12-10T14:52:08;11.73;;;7.13;;
4309;SDS011;2168;53.576;9.980;2022-12-10T14:54:35;11.90;;;7.40;;
4309;SDS011;2168;53.576;9.980;2022-12-10T14:57:04;8.40;;;7.17;;
4309;SDS011;2168;53.576;9.980;2022-12-10T14:59:35;11.70;;;7.50;;
4309;SDS011;2168;53.576;9.980;2022-12-10T15:02:10;10.20;;;7.63;;
4309;SDS011;2168;53.576;9.980;2022-12-10T15:04:39;11.03;;;7.80;;
4309;SDS011;2168;53.576;9.980;2022-12-10T15:07:05;10.97;;;6.90;;
4309;SDS011;2168;53.576;9.980;2022-12-10T15:09:30;12.17;;;7.13;;
4309;SDS011;2168;53.576;9.980;2022-12-10T15:11:57;9.53;;;6.90;;
4309;SDS011;2168;53.576;9.980;2022-12-10T15:14:22;9.70;;;6.70;;
4309;SDS011;2168;53.576;9.980;2022-12-10T15:16:48;9.37;;;6.77;;
4309;SDS011;2168;53.576;9.980;2022-12-10T15:19:16;9.17;;;6.43;;
4309;SDS011;2168;53.576;9.980;2022-12-10T15:21:44;7.60;;;6.43;;
4309;SDS011;2168;53.576;9.980;2022-12-10T15:24:14;12.43;;;7.00;;
4309;SDS011;2168;53.576;9.980;2022-12-10T15:26:42;11.10;;;6.90;;
4309;SDS011;2168;53.576;9.980;2022-12-10T15:31:54;8.53;;;6.60;;
4309;SDS011;2168;53.576;9.980;2022-12-10T15:34:20;7.63;;;6.60;;
4309;SDS011;2168;53.576;9.980;2022-12-10T15:36:49;11.03;;;7.00;;
4309;SDS011;2168;53.576;9.980;2022-12-10T15:41:56;10.17;;;7.40;;
4309;SDS011;2168;53.576;9.980;2022-12-10T15:44:38;9.87;;;7.70;;
4309;SDS011;2168;53.576;9.980;2022-12-10T15:49:41;12.50;;;8.60;;
4309;SDS011;2168;53.576;9.980;2022-12-10T15:52:11;12.63;;;7.87;;
4309;SDS011;2168;53.576;9.980;2022-12-10T15:54:41;11.53;;;8.07;;
4309;SDS011;2168;53.576;9.980;2022-12-10T15:57:13;15.57;;;9.03;;
4309;SDS011;2168;53.576;9.980;2022-12-10T15:59:39;14.80;;;9.20;;
4309;SDS011;2168;53.576;9.980;2022-12-10T16:02:14;12.33;;;7.80;;
4309;SDS011;2168;53.576;9.980;2022-12-10T16:04:43;10.70;;;7.77;;
4309;SDS011;2168;53.576;9.980;2022-12-10T16:07:09;14.57;;;7.90;;
4309;SDS011;2168;53.576;9.980;2022-12-10T16:09:34;11.93;;;7.47;;
4309;SDS011;2168;53.576;9.980;2022-12-10T16:11:59;10.20;;;7.63;;
4309;SDS011;2168;53.576;9.980;2022-12-10T16:14:24;11.47;;;7.83;;
4309;SDS011;2168;53.576;9.980;2022-12-10T16:16:49;11.97;;;8.23;;
4309;SDS011;2168;53.576;9.980;2022-12-10T16:19:15;11.50;;;8.10;;
4309;SDS011;2168;53.576;9.980;2022-12-10T16:21:40;10.80;;;7.60;;
4309;SDS011;2168;53.576;9.980;2022-12-10T16:24:06;11.87;;;8.50;;
4309;SDS011;2168;53.576;9.980;2022-12-10T16:26:31;12.03;;;8.30;;
4309;SDS011;2168;53.576;9.980;2022-12-10T16:31:59;14.87;;;9.20;;
4309;SDS011;2168;53.576;9.980;2022-12-10T16:34:24;13.07;;;9.27;;
4309;SDS011;2168;53.576;9.980;2022-12-10T16:36:50;13.63;;;8.27;;
4309;SDS011;2168;53.576;9.980;2022-12-10T16:39:15;13.87;;;8.97;;
4309;SDS011;2168;53.576;9.980;2022-12-10T16:41:40;11.50;;;8.23;;
4309;SDS011;2168;53.576;9.980;2022-12-10T16:44:07;11.90;;;8.27;;
4309;SDS011;2168;53.576;9.980;2022-12-10T16:46:32;15.07;;;9.40;;
4309;SDS011;2168;53.576;9.980;2022-12-10T16:48:57;13.03;;;8.47;;
4309;SDS011;2168;53.576;9.980;2022-12-10T16:51:23;11.47;;;7.70;;